sensor_id;sensor_type;location;lat;lon;timestamp;pressure;altitude;pressure_sealevel;temperature;humidity
61408;BME280;47274;43.054;25.146;2024-03-02T00:01:18;95065.06;;;6.47;100.00
61408;BME280;47274;43.054;25.146;2024-03-02T00:03:43;95065.31;;;6.44;100.00
61408;BME280;47274;43.054;25.146;2024-03-02T00:06:10;95041.28;;;6.27;100.00
61408;BME280;47274;43.054;25.146;2024-03-02T00:08:36;95057.78;;;6.42;100.00
61408;BME280;47274;43.054;25.146;2024-03-02T00:11:01;95060.34;;;6.42;100.00
61408;BME280;47274;43.054;25.146;2024-03-02T00:13:33;95057.66;;;6.44;100.00
61408;BME280;47274;43.054;25.146;2024-03-02T00:16:00;95032.16;;;6.24;100.00
61408;BME280;47274;43.054;25.146;2024-03-02T00:18:34;95065.28;;;6.34;100.00
61408;BME280;47274;43.054;25.146;2024-03-02T00:21:00;95043.53;;;6.20;100.00
61408;BME280;47274;43.054;25.146;2024-03-02T00:23:30;95025.28;;;6.15;100.00
61408;BME280;47274;43.054;25.146;2024-03-02T00:25:59;95059.50;;;6.32;100.00
61408;BME280;47274;43.054;25.146;2024-03-02T00:28:37;95054.97;;;6.35;100.00
61408;BME280;47274;43.054;25.146;2024-03-02T00:31:09;95053.25;;;6.36;100.00
61408;BME280;47274;43.054;25.146;2024-03-02T00:33:47;95059.41;;;6.43;100.00
61408;BME280;47274;43.054;25.146;2024-03-02T00:36:15;95059.94;;;6.37;100.00
61408;BME280;47274;43.054;25.146;2024-03-02T00:38:46;95023.97;;;6.21;100.00
61408;BME280;47274;43.054;25.146;2024-03-02T00:41:33;95051.88;;;6.41;100.00
61408;BME280;47274;43.054;25.146;2024-03-02T00:44:05;95050.81;;;6.44;100.00
61408;BME280;47274;43.054;25.146;2024-03-02T00:46:35;95049.06;;;6.45;100.00
61408;BME280;47274;43.054;25.146;2024-03-02T00:51:36;95035.75;;;6.22;100.00
61408;BME280;47274;43.054;25.146;2024-03-02T00:54:04;94994.97;;;5.92;100.00
61408;BME280;47274;43.054;25.146;2024-03-02T00:56:34;95039.38;;;6.29;100.00
61408;BME280;47274;43.054;25.146;2024-03-02T00:59:00;95027.19;;;6.23;100.00
61408;BME280;47274;43.054;25.146;2024-03-02T01:01:29;95029.31;;;6.17;100.00
61408;BME280;47274;43.054;25.146;2024-03-02T01:03:54;95041.94;;;6.19;100.00
61408;BME280;47274;43.054;25.146;2024-03-02T01:06:30;95034.97;;;6.21;100.00
61408;BME280;47274;43.054;25.146;2024-03-02T01:08:56;95030.66;;;6.22;100.00
61408;BME280;47274;43.054;25.146;2024-03-02T01:11:21;95018.84;;;6.11;100.00
61408;BME280;47274;43.054;25.146;2024-03-02T01:13:47;94992.69;;;5.99;100.00
61408;BME280;47274;43.054;25.146;2024-03-02T01:16:14;95033.22;;;6.22;100.00
61408;BME280;47274;43.054;25.146;2024-03-02T01:18:44;95030.13;;;6.18;100.00
61408;BME280;47274;43.054;25.146;2024-03-02T01:21:10;95010.53;;;6.09;100.00
61408;BME280;47274;43.054;25.146;2024-03-02T01:23:35;94988.50;;;5.98;100.00
61408;BME280;47274;43.054;25.146;2024-03-02T01:26:01;95023.41;;;6.17;100.00
61408;BME280;47274;43.054;25.146;2024-03-02T01:28:30;95001.00;;;6.01;100.00
61408;BME280;47274;43.054;25.146;2024-03-02T01:30:59;95023.81;;;6.12;100.00
61408;BME280;47274;43.054;25.146;2024-03-02T01:33:31;94989.25;;;5.79;100.00
61408;BME280;47274;43.054;25.146;2024-03-02T01:35:59;94946.47;;;5.63;100.00
61408;BME280;47274;43.054;25.146;2024-03-02T01:38:25;94946.44;;;5.54;100.00
61408;BME280;47274;43.054;25.146;2024-03-02T01:40:51;94988.84;;;5.84;100.00
61408;BME280;47274;43.054;25.146;2024-03-02T01:43:39;95020.56;;;6.01;100.00
61408;BME280;47274;43.054;25.146;2024-03-02T01:46:05;94966.47;;;5.68;100.00
61408;BME280;47274;43.054;25.146;2024-03-02T01:48:31;94979.06;;;5.79;100.00
61408;BME280;47274;43.054;25.146;2024-03-02T01:51:00;95024.19;;;6.08;100.00
61408;BME280;47274;43.054;25.146;2024-03-02T01:53:26;94976.94;;;5.84;100.00
61408;BME280;47274;43.054;25.146;2024-03-02T01:55:54;95008.91;;;6.08;100.00
61408;BME280;47274;43.054;25.146;2024-03-02T01:58:20;95012.56;;;6.05;100.00
61408;BME280;47274;43.054;25.146;2024-03-02T02:00:46;95000.06;;;5.92;100.00
61408;BME280;47274;43.054;25.146;2024-03-02T02:03:14;94940.19;;;5.67;100.00
61408;BME280;47274;43.054;25.146;2024-03-02T02:05:43;94996.09;;;6.19;100.00
61408;BME280;47274;43.054;25.146;2024-03-02T02:08:12;95004.63;;;6.18;100.00
61408;BME280;47274;43.054;25.146;2024-03-02T02:10:38;95012.69;;;6.13;100.00
61408;BME280;47274;43.054;25.146;2024-03-02T02:13:07;94985.69;;;5.91;100.00
61408;BME280;47274;43.054;25.146;2024-03-02T02:15:37;94985.56;;;5.93;100.00
61408;BME280;47274;43.054;25.146;2024-03-02T02:18:03;94991.91;;;5.99;100.00
61408;BME280;47274;43.054;25.146;2024-03-02T02:20:29;94989.56;;;5.86;100.00
61408;BME280;47274;43.054;25.146;2024-03-02T02:23:00;94986.03;;;5.77;100.00
61408;BME280;47274;43.054;25.146;2024-03-02T02:25:29;95008.59;;;5.91;100.00
61408;BME280;47274;43.054;25.146;2024-03-02T02:27:55;94967.13;;;5.70;100.00
61408;BME280;47274;43.054;25.146;2024-03-02T02:30:31;95007.19;;;5.99;100.00
61408;BME280;47274;43.054;25.146;2024-03-02T02:32:57;94992.94;;;5.96;100.00
61408;BME280;47274;43.054;25.146;2024-03-02T02:35:26;94998.31;;;5.93;100.00
61408;BME280;47274;43.054;25.146;2024-03-02T02:37:53;95003.13;;;5.96;100.00
61408;BME280;47274;43.054;25.146;2024-03-02T02:40:19;95010.78;;;5.96;100.00
61408;BME280;47274;43.054;25.146;2024-03-02T02:42:48;94995.53;;;6.06;100.00
61408;BME280;47274;43.054;25.146;2024-03-02T02:45:14;94966.03;;;6.13;100.00
61408;BME280;47274;43.054;25.146;2024-03-02T02:47:41;95013.00;;;6.69;97.57
61408;BME280;47274;43.054;25.146;2024-03-02T02:50:11;95009.91;;;6.84;95.94
61408;BME280;47274;43.054;25.146;2024-03-02T02:52:41;95013.09;;;6.96;95.57
61408;BME280;47274;43.054;25.146;2024-03-02T02:55:09;95004.38;;;6.99;94.02
61408;BME280;47274;43.054;25.146;2024-03-02T02:57:36;94997.78;;;7.06;92.65
61408;BME280;47274;43.054;25.146;2024-03-02T03:00:15;95010.22;;;7.28;90.39
61408;BME280;47274;43.054;25.146;2024-03-02T03:02:42;95010.88;;;7.30;90.84
61408;BME280;47274;43.054;25.146;2024-03-02T03:05:10;95016.94;;;7.29;91.34
61408;BME280;47274;43.054;25.146;2024-03-02T03:07:36;95015.97;;;7.30;90.12
61408;BME280;47274;43.054;25.146;2024-03-02T03:10:03;94991.16;;;7.23;90.51
61408;BME280;47274;43.054;25.146;2024-03-02T03:12:30;95011.69;;;7.21;93.40
61408;BME280;47274;43.054;25.146;2024-03-02T03:15:06;94941.34;;;6.43;97.33
61408;BME280;47274;43.054;25.146;2024-03-02T03:17:34;94974.63;;;6.51;96.52
61408;BME280;47274;43.054;25.146;2024-03-02T03:20:09;94973.66;;;6.91;90.23
61408;BME280;47274;43.054;25.146;2024-03-02T03:22:38;94943.59;;;6.94;89.27
61408;BME280;47274;43.054;25.146;2024-03-02T03:25:05;95004.88;;;7.22;93.90
61408;BME280;47274;43.054;25.146;2024-03-02T03:27:34;94974.75;;;6.78;95.08
61408;BME280;47274;43.054;25.146;2024-03-02T03:29:59;95007.72;;;6.99;92.23
61408;BME280;47274;43.054;25.146;2024-03-02T03:32:28;94985.03;;;6.96;90.42
61408;BME280;47274;43.054;25.146;2024-03-02T03:34:54;94978.63;;;6.82;93.74
61408;BME280;47274;43.054;25.146;2024-03-02T03:37:20;94925.66;;;6.28;95.65
61408;BME280;47274;43.054;25.146;2024-03-02T03:39:52;94979.72;;;6.51;97.74
61408;BME280;47274;43.054;25.146;2024-03-02T03:42:18;94998.50;;;6.59;98.74
61408;BME280;47274;43.054;25.146;2024-03-02T03:44:44;95008.56;;;6.71;96.28
61408;BME280;47274;43.054;25.146;2024-03-02T03:47:09;95020.22;;;6.83;95.59
61408;BME280;47274;43.054;25.146;2024-03-02T03:49:35;95009.38;;;6.71;98.37
61408;BME280;47274;43.054;25.146;2024-03-02T03:52:00;95018.22;;;6.48;99.53
61408;BME280;47274;43.054;25.146;2024-03-02T03:54:26;95013.94;;;6.48;98.92
61408;BME280;47274;43.054;25.146;2024-03-02T03:56:52;95016.09;;;6.43;100.00
61408;BME280;47274;43.054;25.146;2024-03-02T03:59:18;95008.44;;;6.33;100.00
61408;BME280;47274;43.054;25.146;2024-03-02T04:01:43;95026.81;;;6.37;100.00
61408;BME280;47274;43.054;25.146;2024-03-02T04:04:09;95015.91;;;6.25;100.00
61408;BME280;47274;43.054;25.146;2024-03-02T04:06:35;95003.19;;;6.15;100.00
61408;BME280;47274;43.054;25.146;2024-03-02T04:09:01;95015.78;;;6.17;100.00
61408;BME280;47274;43.054;25.146;2024-03-02T04:11:26;94996.78;;;5.90;100.00
61408;BME280;47274;43.054;25.146;2024-03-02T04:13:52;95008.22;;;5.96;100.00
61408;BME280;47274;43.054;25.146;2024-03-02T04:16:18;95000.28;;;5.89;100.00
61408;BME280;47274;43.054;25.146;2024-03-02T04:18:43;94995.44;;;5.86;100.00
61408;BME280;47274;43.054;25.146;2024-03-02T04:21:09;95014.41;;;6.03;100.00
61408;BME280;47274;43.054;25.146;2024-03-02T04:23:38;95001.88;;;5.90;100.00
61408;BME280;47274;43.054;25.146;2024-03-02T04:26:04;95009.66;;;5.89;100.00
61408;BME280;47274;43.054;25.146;2024-03-02T04:28:39;94995.25;;;5.99;100.00
61408;BME280;47274;43.054;25.146;2024-03-02T04:31:15;95015.53;;;6.30;100.00
61408;BME280;47274;43.054;25.146;2024-03-02T04:37:11;94945.53;;;5.55;100.00
61408;BME280;47274;43.054;25.146;2024-03-02T04:39:44;94982.44;;;5.80;100.00
61408;BME280;47274;43.054;25.146;2024-03-02T04:42:21;94976.78;;;5.76;100.00
61408;BME280;47274;43.054;25.146;2024-03-02T04:44:50;94989.25;;;5.79;100.00
61408;BME280;47274;43.054;25.146;2024-03-02T04:47:19;94935.66;;;5.31;100.00
61408;BME280;47274;43.054;25.146;2024-03-02T04:49:51;94943.59;;;5.37;100.00
61408;BME280;47274;43.054;25.146;2024-03-02T04:52:17;94993.78;;;5.66;100.00
61408;BME280;47274;43.054;25.146;2024-03-02T04:54:49;95025.31;;;5.75;100.00
61408;BME280;47274;43.054;25.146;2024-03-02T04:57:33;94957.75;;;5.30;100.00
61408;BME280;47274;43.054;25.146;2024-03-02T05:00:23;94960.66;;;5.26;100.00
61408;BME280;47274;43.054;25.146;2024-03-02T05:03:04;94944.97;;;5.11;100.00
61408;BME280;47274;43.054;25.146;2024-03-02T05:05:35;94941.97;;;5.06;100.00
61408;BME280;47274;43.054;25.146;2024-03-02T05:08:03;94943.72;;;5.05;100.00
61408;BME280;47274;43.054;25.146;2024-03-02T05:10:38;94956.31;;;5.07;100.00
61408;BME280;47274;43.054;25.146;2024-03-02T05:13:06;94948.94;;;5.04;100.00
61408;BME280;47274;43.054;25.146;2024-03-02T05:15:47;94954.69;;;5.06;100.00
61408;BME280;47274;43.054;25.146;2024-03-02T05:21:10;94951.72;;;5.01;100.00
61408;BME280;47274;43.054;25.146;2024-03-02T05:26:47;94950.97;;;5.10;100.00
61408;BME280;47274;43.054;25.146;2024-03-02T05:29:15;95006.94;;;5.40;100.00
61408;BME280;47274;43.054;25.146;2024-03-02T05:31:44;95039.94;;;5.52;100.00
61408;BME280;47274;43.054;25.146;2024-03-02T05:34:10;95035.78;;;5.51;100.00
61408;BME280;47274;43.054;25.146;2024-03-02T05:36:35;95041.13;;;5.47;100.00
61408;BME280;47274;43.054;25.146;2024-03-02T05:39:02;95044.84;;;5.43;100.00
61408;BME280;47274;43.054;25.146;2024-03-02T05:41:30;95035.91;;;5.49;100.00
61408;BME280;47274;43.054;25.146;2024-03-02T05:43:56;95030.81;;;5.49;100.00
61408;BME280;47274;43.054;25.146;2024-03-02T05:46:22;95028.16;;;5.51;100.00
61408;BME280;47274;43.054;25.146;2024-03-02T05:48:48;95044.38;;;5.59;100.00
61408;BME280;47274;43.054;25.146;2024-03-02T05:51:13;95055.31;;;5.71;100.00
61408;BME280;47274;43.054;25.146;2024-03-02T05:53:39;95058.50;;;5.73;100.00
61408;BME280;47274;43.054;25.146;2024-03-02T05:56:05;95064.94;;;5.77;100.00
61408;BME280;47274;43.054;25.146;2024-03-02T05:58:32;95055.41;;;5.69;100.00
61408;BME280;47274;43.054;25.146;2024-03-02T06:01:16;95048.72;;;5.68;100.00
61408;BME280;47274;43.054;25.146;2024-03-02T06:03:43;95041.75;;;5.70;100.00
61408;BME280;47274;43.054;25.146;2024-03-02T06:06:09;95055.16;;;5.73;100.00
61408;BME280;47274;43.054;25.146;2024-03-02T06:08:35;95068.59;;;5.84;100.00
61408;BME280;47274;43.054;25.146;2024-03-02T06:11:01;95046.38;;;5.86;100.00
61408;BME280;47274;43.054;25.146;2024-03-02T06:13:27;95046.22;;;5.88;100.00
61408;BME280;47274;43.054;25.146;2024-03-02T06:15:52;95024.75;;;5.81;100.00
61408;BME280;47274;43.054;25.146;2024-03-02T06:18:18;95045.63;;;5.96;100.00
61408;BME280;47274;43.054;25.146;2024-03-02T06:20:44;95064.03;;;6.09;100.00
61408;BME280;47274;43.054;25.146;2024-03-02T06:23:10;95019.00;;;5.79;100.00
61408;BME280;47274;43.054;25.146;2024-03-02T06:25:35;95058.91;;;5.99;100.00
61408;BME280;47274;43.054;25.146;2024-03-02T06:28:01;95064.66;;;6.01;100.00
61408;BME280;47274;43.054;25.146;2024-03-02T06:30:27;95038.47;;;5.89;100.00
61408;BME280;47274;43.054;25.146;2024-03-02T06:32:52;95071.22;;;5.94;100.00
61408;BME280;47274;43.054;25.146;2024-03-02T06:35:18;95071.91;;;5.96;100.00
61408;BME280;47274;43.054;25.146;2024-03-02T06:37:44;95071.66;;;5.99;100.00
61408;BME280;47274;43.054;25.146;2024-03-02T06:40:09;95044.84;;;5.95;100.00
61408;BME280;47274;43.054;25.146;2024-03-02T06:42:35;95082.16;;;6.15;100.00
61408;BME280;47274;43.054;25.146;2024-03-02T06:45:02;95068.59;;;6.15;100.00
61408;BME280;47274;43.054;25.146;2024-03-02T06:47:28;95074.13;;;6.20;100.00
61408;BME280;47274;43.054;25.146;2024-03-02T06:49:54;95071.84;;;6.27;100.00
61408;BME280;47274;43.054;25.146;2024-03-02T06:52:19;95075.59;;;6.23;100.00
61408;BME280;47274;43.054;25.146;2024-03-02T06:54:46;95091.13;;;6.10;100.00
61408;BME280;47274;43.054;25.146;2024-03-02T06:57:12;95075.97;;;5.87;100.00
61408;BME280;47274;43.054;25.146;2024-03-02T06:59:38;95070.53;;;5.92;100.00
61408;BME280;47274;43.054;25.146;2024-03-02T07:02:03;95107.34;;;6.09;100.00
61408;BME280;47274;43.054;25.146;2024-03-02T07:04:29;95095.47;;;5.98;100.00
61408;BME280;47274;43.054;25.146;2024-03-02T07:06:55;95065.75;;;5.99;100.00
61408;BME280;47274;43.054;25.146;2024-03-02T07:09:20;95079.19;;;6.10;100.00
61408;BME280;47274;43.054;25.146;2024-03-02T07:11:48;95079.19;;;6.10;100.00
61408;BME280;47274;43.054;25.146;2024-03-02T07:14:14;95080.28;;;6.17;100.00
61408;BME280;47274;43.054;25.146;2024-03-02T07:16:40;95079.47;;;6.17;100.00
61408;BME280;47274;43.054;25.146;2024-03-02T07:19:08;95089.41;;;6.20;100.00
61408;BME280;47274;43.054;25.146;2024-03-02T07:21:34;95084.19;;;6.31;100.00
61408;BME280;47274;43.054;25.146;2024-03-02T07:24:00;95072.13;;;6.24;100.00
61408;BME280;47274;43.054;25.146;2024-03-02T07:26:29;95106.75;;;6.36;100.00
61408;BME280;47274;43.054;25.146;2024-03-02T07:28:57;95123.75;;;6.35;100.00
61408;BME280;47274;43.054;25.146;2024-03-02T07:31:22;95074.94;;;6.30;100.00
61408;BME280;47274;43.054;25.146;2024-03-02T07:33:48;95083.81;;;6.36;100.00
61408;BME280;47274;43.054;25.146;2024-03-02T07:36:14;95094.28;;;6.33;100.00
61408;BME280;47274;43.054;25.146;2024-03-02T07:38:40;95095.72;;;6.35;100.00
61408;BME280;47274;43.054;25.146;2024-03-02T07:41:07;95073.59;;;6.26;100.00
61408;BME280;47274;43.054;25.146;2024-03-02T07:43:34;95059.34;;;6.14;100.00
61408;BME280;47274;43.054;25.146;2024-03-02T07:46:00;95084.13;;;6.12;100.00
61408;BME280;47274;43.054;25.146;2024-03-02T07:48:26;95104.69;;;6.20;100.00
61408;BME280;47274;43.054;25.146;2024-03-02T07:50:52;95074.34;;;6.07;100.00
61408;BME280;47274;43.054;25.146;2024-03-02T07:53:18;95086.72;;;6.22;100.00
61408;BME280;47274;43.054;25.146;2024-03-02T07:55:43;95096.81;;;6.33;100.00
61408;BME280;47274;43.054;25.146;2024-03-02T07:58:09;95091.53;;;6.25;100.00
61408;BME280;47274;43.054;25.146;2024-03-02T08:00:39;95098.78;;;6.20;100.00
61408;BME280;47274;43.054;25.146;2024-03-02T08:03:06;95117.84;;;6.25;100.00
61408;BME280;47274;43.054;25.146;2024-03-02T08:05:31;95099.38;;;6.33;100.00
61408;BME280;47274;43.054;25.146;2024-03-02T08:07:57;95078.44;;;6.39;100.00
61408;BME280;47274;43.054;25.146;2024-03-02T08:10:23;95103.28;;;6.47;100.00
61408;BME280;47274;43.054;25.146;2024-03-02T08:12:49;95103.28;;;6.47;100.00
61408;BME280;47274;43.054;25.146;2024-03-02T08:15:15;95070.53;;;6.42;100.00
61408;BME280;47274;43.054;25.146;2024-03-02T08:17:40;95094.19;;;6.63;100.00
61408;BME280;47274;43.054;25.146;2024-03-02T08:20:13;95114.59;;;6.63;100.00
61408;BME280;47274;43.054;25.146;2024-03-02T08:22:39;95081.44;;;6.63;100.00
61408;BME280;47274;43.054;25.146;2024-03-02T08:25:06;95074.47;;;6.75;100.00
61408;BME280;47274;43.054;25.146;2024-03-02T08:27:33;95076.88;;;6.86;100.00
61408;BME280;47274;43.054;25.146;2024-03-02T08:29:59;95085.31;;;6.87;100.00
61408;BME280;47274;43.054;25.146;2024-03-02T08:32:25;95092.19;;;6.96;100.00
61408;BME280;47274;43.054;25.146;2024-03-02T08:34:50;95064.38;;;6.93;100.00
61408;BME280;47274;43.054;25.146;2024-03-02T08:37:16;95099.16;;;7.13;100.00
61408;BME280;47274;43.054;25.146;2024-03-02T08:39:42;95100.25;;;6.92;100.00
61408;BME280;47274;43.054;25.146;2024-03-02T08:42:07;95089.47;;;7.07;100.00
61408;BME280;47274;43.054;25.146;2024-03-02T08:44:33;95094.56;;;7.17;100.00
61408;BME280;47274;43.054;25.146;2024-03-02T08:46:59;95078.34;;;7.08;100.00
61408;BME280;47274;43.054;25.146;2024-03-02T08:49:25;95103.44;;;7.23;100.00
61408;BME280;47274;43.054;25.146;2024-03-02T08:51:51;95121.84;;;7.36;100.00
61408;BME280;47274;43.054;25.146;2024-03-02T08:54:21;95117.69;;;7.35;100.00
61408;BME280;47274;43.054;25.146;2024-03-02T08:56:48;95120.09;;;7.27;100.00
61408;BME280;47274;43.054;25.146;2024-03-02T08:59:17;95090.31;;;7.08;100.00
61408;BME280;47274;43.054;25.146;2024-03-02T09:01:43;95116.84;;;7.34;100.00
61408;BME280;47274;43.054;25.146;2024-03-02T09:04:09;95080.75;;;7.29;100.00
61408;BME280;47274;43.054;25.146;2024-03-02T09:06:35;95091.75;;;7.40;100.00
61408;BME280;47274;43.054;25.146;2024-03-02T09:09:00;95069.47;;;7.32;100.00
61408;BME280;47274;43.054;25.146;2024-03-02T09:11:26;95112.00;;;7.51;100.00
61408;BME280;47274;43.054;25.146;2024-03-02T09:13:52;95101.78;;;7.60;100.00
61408;BME280;47274;43.054;25.146;2024-03-02T09:16:18;95090.06;;;7.68;100.00
61408;BME280;47274;43.054;25.146;2024-03-02T09:18:44;95124.59;;;7.72;100.00
61408;BME280;47274;43.054;25.146;2024-03-02T09:21:10;95100.28;;;7.68;100.00
61408;BME280;47274;43.054;25.146;2024-03-02T09:23:36;95078.09;;;7.68;100.00
61408;BME280;47274;43.054;25.146;2024-03-02T09:26:02;95091.38;;;7.72;100.00
61408;BME280;47274;43.054;25.146;2024-03-02T09:28:28;95093.78;;;7.83;100.00
61408;BME280;47274;43.054;25.146;2024-03-02T09:30:54;95108.25;;;7.92;100.00
61408;BME280;47274;43.054;25.146;2024-03-02T09:33:20;95109.31;;;7.90;100.00
61408;BME280;47274;43.054;25.146;2024-03-02T09:35:45;95084.63;;;7.90;100.00
61408;BME280;47274;43.054;25.146;2024-03-02T09:38:11;95078.22;;;7.76;100.00
61408;BME280;47274;43.054;25.146;2024-03-02T09:40:37;95132.78;;;8.13;100.00
61408;BME280;47274;43.054;25.146;2024-03-02T09:43:03;95136.25;;;8.21;100.00
61408;BME280;47274;43.054;25.146;2024-03-02T09:45:29;95096.91;;;8.04;100.00
61408;BME280;47274;43.054;25.146;2024-03-02T09:47:55;95117.66;;;8.29;100.00
61408;BME280;47274;43.054;25.146;2024-03-02T09:50:21;95111.59;;;8.30;100.00
61408;BME280;47274;43.054;25.146;2024-03-02T09:52:50;95079.31;;;8.01;100.00
61408;BME280;47274;43.054;25.146;2024-03-02T09:55:18;95112.31;;;8.22;100.00
61408;BME280;47274;43.054;25.146;2024-03-02T09:57:47;95097.91;;;8.21;100.00
61408;BME280;47274;43.054;25.146;2024-03-02T10:00:15;95080.31;;;8.18;100.00
61408;BME280;47274;43.054;25.146;2024-03-02T10:02:41;95091.41;;;8.27;100.00
61408;BME280;47274;43.054;25.146;2024-03-02T10:05:10;95108.22;;;8.39;100.00
61408;BME280;47274;43.054;25.146;2024-03-02T10:07:37;95099.59;;;8.30;100.00
61408;BME280;47274;43.054;25.146;2024-03-02T10:10:13;95075.16;;;8.28;100.00
61408;BME280;47274;43.054;25.146;2024-03-02T10:12:40;95083.34;;;8.31;100.00
61408;BME280;47274;43.054;25.146;2024-03-02T10:15:06;95101.25;;;8.31;100.00
61408;BME280;47274;43.054;25.146;2024-03-02T10:17:33;95062.63;;;8.07;100.00
61408;BME280;47274;43.054;25.146;2024-03-02T10:19:58;95090.25;;;8.21;100.00
61408;BME280;47274;43.054;25.146;2024-03-02T10:22:24;95097.88;;;8.59;100.00
61408;BME280;47274;43.054;25.146;2024-03-02T10:24:52;95126.53;;;8.80;98.36
61408;BME280;47274;43.054;25.146;2024-03-02T10:27:23;95116.94;;;8.64;98.01
61408;BME280;47274;43.054;25.146;2024-03-02T10:29:49;95111.88;;;8.54;99.45
61408;BME280;47274;43.054;25.146;2024-03-02T10:32:16;95117.09;;;8.63;100.00
61408;BME280;47274;43.054;25.146;2024-03-02T10:34:44;95113.84;;;8.43;100.00
61408;BME280;47274;43.054;25.146;2024-03-02T10:37:14;95117.81;;;8.27;100.00
61408;BME280;47274;43.054;25.146;2024-03-02T10:39:40;95125.31;;;8.39;100.00
61408;BME280;47274;43.054;25.146;2024-03-02T10:42:07;95097.03;;;8.30;100.00
61408;BME280;47274;43.054;25.146;2024-03-02T10:44:33;95095.00;;;8.44;100.00
61408;BME280;47274;43.054;25.146;2024-03-02T10:47:01;95082.50;;;8.41;100.00
61408;BME280;47274;43.054;25.146;2024-03-02T10:49:31;95056.78;;;8.42;100.00
61408;BME280;47274;43.054;25.146;2024-03-02T10:51:58;95028.84;;;8.31;100.00
61408;BME280;47274;43.054;25.146;2024-03-02T10:54:24;95033.50;;;8.18;100.00
61408;BME280;47274;43.054;25.146;2024-03-02T10:56:53;95036.59;;;8.21;100.00
61408;BME280;47274;43.054;25.146;2024-03-02T10:59:36;95050.41;;;8.01;100.00
61408;BME280;47274;43.054;25.146;2024-03-02T11:02:04;95068.06;;;7.94;100.00
61408;BME280;47274;43.054;25.146;2024-03-02T11:04:32;95073.19;;;7.84;100.00
61408;BME280;47274;43.054;25.146;2024-03-02T11:07:10;95074.97;;;8.12;100.00
61408;BME280;47274;43.054;25.146;2024-03-02T11:09:40;95083.38;;;8.22;100.00
61408;BME280;47274;43.054;25.146;2024-03-02T11:14:51;95096.59;;;8.17;100.00
61408;BME280;47274;43.054;25.146;2024-03-02T11:17:20;95098.81;;;8.30;99.20
61408;BME280;47274;43.054;25.146;2024-03-02T11:19:49;95109.53;;;8.43;99.19
61408;BME280;47274;43.054;25.146;2024-03-02T11:22:15;95151.13;;;8.45;98.47
61408;BME280;47274;43.054;25.146;2024-03-02T11:24:51;95141.81;;;8.44;98.79
61408;BME280;47274;43.054;25.146;2024-03-02T11:33:00;95127.59;;;8.42;98.33
61408;BME280;47274;43.054;25.146;2024-03-02T11:35:26;95109.28;;;8.37;98.93
61408;BME280;47274;43.054;25.146;2024-03-02T11:37:54;95122.72;;;8.48;97.99
61408;BME280;47274;43.054;25.146;2024-03-02T11:40:24;95098.94;;;8.38;97.09
61408;BME280;47274;43.054;25.146;2024-03-02T11:42:51;95102.84;;;8.32;97.97
61408;BME280;47274;43.054;25.146;2024-03-02T11:45:17;95125.16;;;8.30;98.27
61408;BME280;47274;43.054;25.146;2024-03-02T11:47:50;95138.47;;;8.34;98.33
61408;BME280;47274;43.054;25.146;2024-03-02T11:50:35;95129.06;;;8.35;98.92
61408;BME280;47274;43.054;25.146;2024-03-02T11:53:10;95140.94;;;8.26;98.62
61408;BME280;47274;43.054;25.146;2024-03-02T11:55:36;95132.50;;;8.16;99.40
61408;BME280;47274;43.054;25.146;2024-03-02T11:58:03;95104.72;;;8.03;99.93
61408;BME280;47274;43.054;25.146;2024-03-02T12:00:29;95126.09;;;8.02;99.78
61408;BME280;47274;43.054;25.146;2024-03-02T12:03:04;95128.53;;;8.03;100.00
61408;BME280;47274;43.054;25.146;2024-03-02T12:05:31;95125.22;;;7.93;100.00
61408;BME280;47274;43.054;25.146;2024-03-02T12:08:02;95123.72;;;7.91;100.00
61408;BME280;47274;43.054;25.146;2024-03-02T12:10:29;95110.84;;;7.82;100.00
61408;BME280;47274;43.054;25.146;2024-03-02T12:12:58;95094.22;;;7.69;100.00
61408;BME280;47274;43.054;25.146;2024-03-02T12:15:31;95098.25;;;7.71;100.00
61408;BME280;47274;43.054;25.146;2024-03-02T12:17:59;95075.97;;;7.54;100.00
61408;BME280;47274;43.054;25.146;2024-03-02T12:20:26;95099.84;;;7.72;100.00
61408;BME280;47274;43.054;25.146;2024-03-02T12:22:54;95094.38;;;7.57;100.00
61408;BME280;47274;43.054;25.146;2024-03-02T12:25:20;95096.13;;;7.57;100.00
61408;BME280;47274;43.054;25.146;2024-03-02T12:27:53;95102.97;;;7.66;100.00
61408;BME280;47274;43.054;25.146;2024-03-02T12:30:20;95109.28;;;7.62;100.00
61408;BME280;47274;43.054;25.146;2024-03-02T12:32:47;95120.56;;;7.69;100.00
61408;BME280;47274;43.054;25.146;2024-03-02T12:35:14;95114.28;;;7.54;100.00
61408;BME280;47274;43.054;25.146;2024-03-02T12:40:10;95113.06;;;7.48;100.00
61408;BME280;47274;43.054;25.146;2024-03-02T12:42:37;95129.22;;;7.49;100.00
61408;BME280;47274;43.054;25.146;2024-03-02T12:45:03;95120.19;;;7.45;100.00
61408;BME280;47274;43.054;25.146;2024-03-02T12:47:29;95129.22;;;7.49;100.00
61408;BME280;47274;43.054;25.146;2024-03-02T12:49:55;95135.41;;;7.36;100.00
61408;BME280;47274;43.054;25.146;2024-03-02T12:52:21;95137.97;;;7.36;100.00
61408;BME280;47274;43.054;25.146;2024-03-02T12:54:49;95146.94;;;7.41;100.00
61408;BME280;47274;43.054;25.146;2024-03-02T12:57:18;95124.53;;;7.05;100.00
61408;BME280;47274;43.054;25.146;2024-03-02T12:59:47;95146.28;;;7.19;100.00
61408;BME280;47274;43.054;25.146;2024-03-02T13:02:20;95170.59;;;7.23;100.00
61408;BME280;47274;43.054;25.146;2024-03-02T13:04:53;95128.97;;;7.13;100.00
61408;BME280;47274;43.054;25.146;2024-03-02T13:07:23;95142.41;;;7.15;100.00
61408;BME280;47274;43.054;25.146;2024-03-02T13:09:53;95164.00;;;7.21;100.00
61408;BME280;47274;43.054;25.146;2024-03-02T13:12:23;95143.19;;;7.06;100.00
61408;BME280;47274;43.054;25.146;2024-03-02T13:14:51;95127.88;;;6.96;100.00
61408;BME280;47274;43.054;25.146;2024-03-02T13:17:18;95150.44;;;7.10;100.00
61408;BME280;47274;43.054;25.146;2024-03-02T13:19:53;95160.91;;;7.07;100.00